Time;durP1;ratioP1;P1;durP2;ratioP2;P2;SDS_P1;SDS_P2;PMS_P1;PMS_P2;Temp;Humidity;BMP_temperature;BMP_pressure;BME280_temperature;BME280_humidity;BME280_pressure;Samples;Min_cycle;Max_cycle;Signal;HPM_P1;HPM_P2
2022/04/16 00:00:23;;;;;;;3.10;2.80;;;;;;;7.43;nan;99291.25;4969049;28;20440;-58
2022/04/16 00:02:49;;;;;;;2.07;1.87;;;;;;;7.46;nan;99317.66;4972316;28;20042;-59
2022/04/16 00:05:15;;;;;;;2.17;1.97;;;;;;;7.51;nan;99310.84;4973854;28;20053;-58
2022/04/16 00:07:41;;;;;;;3.77;2.17;;;;;;;7.61;nan;99309.19;4972845;28;20492;-58
2022/04/16 00:10:08;;;;;;;2.40;2.20;;;;;;;7.76;nan;99306.72;4978245;28;20031;-59
2022/04/16 00:12:33;;;;;;;2.23;2.03;;;;;;;7.81;nan;99285.44;4971087;28;20089;-59
2022/04/16 00:14:59;;;;;;;2.47;2.27;;;;;;;8.03;nan;99301.66;4970504;28;20034;-59
2022/04/16 00:17:25;;;;;;;2.13;1.90;;;;;;;8.21;nan;99299.16;4969500;28;20137;-59
2022/04/16 00:19:50;;;;;;;5.03;2.27;;;;;;;8.35;nan;99294.09;4971139;28;20027;-59
2022/04/16 00:22:16;;;;;;;1.70;1.60;;;;;;;8.43;nan;99286.41;4972724;28;20405;-59
2022/04/16 00:24:42;;;;;;;1.87;1.77;;;;;;;8.47;nan;99296.63;4973718;28;20483;-59
2022/04/16 00:27:12;;;;;;;2.13;1.93;;;;;;;8.46;nan;99283.84;4971387;28;20053;-59
2022/04/16 00:29:38;;;;;;;1.60;1.50;;;;;;;8.49;nan;99288.94;4969878;28;20159;-59
2022/04/16 00:32:06;;;;;;;2.17;1.93;;;;;;;8.56;nan;99294.09;4972922;28;20125;-59
2022/04/16 00:34:33;;;;;;;2.00;1.60;;;;;;;8.58;nan;99296.63;4972538;28;20027;-59
2022/04/16 00:36:58;;;;;;;2.07;1.97;;;;;;;8.55;nan;99294.06;4970189;28;20153;-60
2022/04/16 00:39:24;;;;;;;2.03;1.93;;;;;;;8.43;nan;99266.84;4973081;28;20030;-59
2022/04/16 00:41:50;;;;;;;2.07;1.87;;;;;;;8.57;nan;99285.53;4972829;28;20035;-60
2022/04/16 00:44:19;;;;;;;2.37;2.07;;;;;;;8.55;nan;99286.41;4972623;28;20022;-59
2022/04/16 00:46:45;;;;;;;2.23;1.70;;;;;;;8.46;nan;99271.06;4969285;28;20042;-58
2022/04/16 00:49:10;;;;;;;2.33;2.13;;;;;;;8.51;nan;99272.78;4971050;28;20031;-59
2022/04/16 00:51:36;;;;;;;2.10;1.90;;;;;;;8.56;nan;99272.78;4973766;28;20035;-59
2022/04/16 00:54:01;;;;;;;1.90;1.80;;;;;;;8.54;nan;99279.59;4970199;28;20026;-59
2022/04/16 00:56:28;;;;;;;1.77;1.67;;;;;;;8.52;nan;99277.06;4970065;28;20066;-59
2022/04/16 00:58:54;;;;;;;2.00;1.90;;;;;;;8.51;nan;99277.91;4971246;28;20062;-59
2022/04/16 01:01:19;;;;;;;1.97;1.87;;;;;;;8.57;nan;99294.94;4971899;28;20049;-59
2022/04/16 01:03:47;;;;;;;1.90;1.80;;;;;;;8.58;nan;99294.06;4972719;28;20034;-59
2022/04/16 01:06:15;;;;;;;2.30;2.20;;;;;;;8.58;nan;99291.50;4970225;28;20411;-59
2022/04/16 01:08:44;;;;;;;2.33;2.13;;;;;;;8.57;nan;99282.16;4971812;28;20113;-64
2022/04/16 01:11:09;;;;;;;2.40;2.20;;;;;;;8.60;nan;99283.00;4973794;28;20089;-58
2022/04/16 01:13:36;;;;;;;2.40;2.20;;;;;;;8.64;nan;99281.28;4971463;28;20121;-59
2022/04/16 01:16:02;;;;;;;2.60;2.40;;;;;;;8.67;nan;99271.06;4968896;28;20030;-59
2022/04/16 01:18:27;;;;;;;2.17;1.93;;;;;;;8.77;nan;99277.03;4971616;28;20591;-60
2022/04/16 01:20:54;;;;;;;2.67;2.47;;;;;;;8.79;nan;99277.84;4974000;28;20034;-60
2022/04/16 01:23:19;;;;;;;2.53;2.33;;;;;;;8.85;nan;99278.72;4970305;28;20133;-59
2022/04/16 01:25:44;;;;;;;2.73;2.20;;;;;;;8.83;nan;99262.50;4968032;28;20058;-59
2022/04/16 01:28:10;;;;;;;2.27;2.13;;;;;;;8.89;nan;99275.28;4972239;28;20039;-60
2022/04/16 01:30:37;;;;;;;2.53;2.33;;;;;;;8.90;nan;99279.56;4973594;28;20042;-60
2022/04/16 01:33:03;;;;;;;2.43;2.20;;;;;;;8.90;nan;99261.66;4970656;28;20118;-60
2022/04/16 01:35:29;;;;;;;2.30;2.10;;;;;;;8.97;nan;99267.59;4969722;28;20049;-60
2022/04/16 01:37:54;;;;;;;3.00;2.70;;;;;;;8.90;nan;99259.09;4974633;28;20124;-59
2022/04/16 01:40:26;;;;;;;2.87;2.67;;;;;;;8.91;nan;99263.34;4972257;28;20469;-59
2022/04/16 01:42:56;;;;;;;2.33;2.13;;;;;;;9.02;nan;99271.00;4968596;28;20030;-60
2022/04/16 01:45:24;;;;;;;6.27;4.23;;;;;;;8.89;nan;99264.22;4969367;28;20046;-61
2022/04/16 01:47:50;;;;;;;5.00;2.57;;;;;;;8.95;nan;99270.19;4972477;28;20027;-60
2022/04/16 01:50:16;;;;;;;2.80;2.60;;;;;;;8.96;nan;99268.44;4974017;28;20556;-59
2022/04/16 01:52:42;;;;;;;3.17;2.87;;;;;;;9.00;nan;99267.59;4968245;28;20049;-60
2022/04/16 01:55:09;;;;;;;2.50;2.30;;;;;;;8.99;nan;99265.91;4968747;28;20035;-60
2022/04/16 01:57:35;;;;;;;2.77;2.57;;;;;;;9.07;nan;99269.28;4970821;28;20045;-59
2022/04/16 02:00:02;;;;;;;2.67;2.37;;;;;;;8.93;nan;99258.22;4969646;28;20030;-60
2022/04/16 02:02:28;;;;;;;3.03;2.77;;;;;;;8.93;nan;99259.09;4968596;28;20041;-59
2022/04/16 02:04:53;;;;;;;3.00;2.73;;;;;;;9.05;nan;99266.72;4970090;28;20412;-60
2022/04/16 02:07:18;;;;;;;2.80;2.60;;;;;;;8.95;nan;99249.72;4972887;28;20038;-60
2022/04/16 02:09:44;;;;;;;3.53;3.23;;;;;;;9.08;nan;99266.72;4969142;28;20042;-59
2022/04/16 02:12:09;;;;;;;3.93;3.60;;;;;;;8.91;nan;99245.44;4969921;28;20031;-59
2022/04/16 02:14:35;;;;;;;3.17;2.97;;;;;;;9.04;nan;99261.59;4971066;28;20035;-59
2022/04/16 02:17:00;;;;;;;2.87;2.67;;;;;;;8.98;nan;99247.16;4971649;28;20039;-59
2022/04/16 02:19:27;;;;;;;4.47;3.20;;;;;;;9.03;nan;99260.78;4971603;28;20038;-60
2022/04/16 02:21:52;;;;;;;3.87;3.27;;;;;;;9.04;nan;99257.34;4969711;28;20066;-59
2022/04/16 02:24:18;;;;;;;3.17;2.97;;;;;;;9.06;nan;99259.91;4970948;28;20700;-60
2022/04/16 02:26:44;;;;;;;3.17;2.87;;;;;;;9.10;nan;99244.53;4972671;28;20030;-59
2022/04/16 02:29:10;;;;;;;3.73;3.10;;;;;;;9.05;nan;99248.81;4969800;28;20045;-59
2022/04/16 02:31:39;;;;;;;3.40;3.10;;;;;;;8.99;nan;99233.50;4968128;28;20453;-59
2022/04/16 02:34:07;;;;;;;4.80;3.97;;;;;;;9.02;nan;99245.44;4971169;28;20034;-59
2022/04/16 02:36:33;;;;;;;3.13;2.90;;;;;;;9.00;nan;99237.75;4970437;28;20527;-59
2022/04/16 02:38:59;;;;;;;3.80;3.50;;;;;;;9.01;nan;99247.13;4968069;28;20043;-59
2022/04/16 02:41:25;;;;;;;4.17;3.77;;;;;;;9.08;nan;99243.69;4970320;28;20042;-62
2022/04/16 02:43:54;;;;;;;3.53;3.23;;;;;;;9.06;nan;99252.22;4971510;28;20481;-58
2022/04/16 02:49:05;;;;;;;3.13;2.83;;;;;;;9.08;nan;99245.41;4969167;28;20045;-59
2022/04/16 02:51:30;;;;;;;2.87;2.67;;;;;;;9.06;nan;99231.78;4970945;28;20035;-59
2022/04/16 02:53:55;;;;;;;3.63;3.33;;;;;;;9.00;nan;99222.41;4973852;28;20035;-59
2022/04/16 02:56:21;;;;;;;3.53;3.23;;;;;;;9.07;nan;99241.16;4969030;28;20166;-60
2022/04/16 02:58:46;;;;;;;3.23;2.97;;;;;;;8.96;nan;99217.31;4967732;28;20148;-60
2022/04/16 03:01:12;;;;;;;3.77;2.63;;;;;;;9.04;nan;99234.31;4971564;28;20030;-58
2022/04/16 03:03:37;;;;;;;3.20;2.90;;;;;;;9.00;nan;99224.09;4971445;28;20027;-60
2022/04/16 03:06:02;;;;;;;2.90;2.60;;;;;;;8.94;nan;99224.16;4972493;28;20034;-58
2022/04/16 03:08:28;;;;;;;3.03;2.83;;;;;;;8.94;nan;99219.03;4973965;28;20090;-59
2022/04/16 03:10:55;;;;;;;3.27;2.97;;;;;;;8.97;nan;99227.53;4974457;28;20492;-58
2022/04/16 03:13:21;;;;;;;2.53;2.23;;;;;;;8.87;nan;99205.41;4975539;28;20049;-59
2022/04/16 03:18:30;;;;;;;2.33;2.17;;;;;;;8.95;nan;99210.50;4972260;28;20404;-59
2022/04/16 03:20:57;;;;;;;2.57;2.37;;;;;;;9.01;nan;99229.22;4974211;28;20035;-59
2022/04/16 03:23:23;;;;;;;3.23;2.93;;;;;;;9.00;nan;99216.44;4974768;28;20113;-59
2022/04/16 03:25:48;;;;;;;3.33;2.97;;;;;;;9.07;nan;99228.38;4972366;28;20038;-59
2022/04/16 03:28:15;;;;;;;2.37;2.17;;;;;;;9.06;nan;99239.44;4971837;28;20046;-60
2022/04/16 03:30:40;;;;;;;3.40;2.90;;;;;;;9.03;nan;99236.91;4974217;28;20144;-59
2022/04/16 03:33:06;;;;;;;2.47;2.27;;;;;;;8.93;nan;99220.72;4975098;28;20592;-62
2022/04/16 03:35:32;;;;;;;3.00;2.67;;;;;;;9.00;nan;99229.22;4971198;28;20033;-61
2022/04/16 03:37:58;;;;;;;3.37;3.07;;;;;;;9.05;nan;99232.63;4971684;28;20476;-60
2022/04/16 03:40:24;;;;;;;2.93;2.73;;;;;;;8.95;nan;99228.41;4974145;28;20226;-60
2022/04/16 03:42:56;;;;;;;3.17;2.50;;;;;;;8.95;nan;99225.84;4973797;28;20023;-61
2022/04/16 03:45:27;;;;;;;2.60;2.40;;;;;;;8.99;nan;99253.97;4971193;28;20034;-60
2022/04/16 03:47:57;;;;;;;2.60;2.20;;;;;;;8.96;nan;99233.50;4971556;28;20032;-60
2022/04/16 03:50:24;;;;;;;2.80;2.60;;;;;;;9.06;nan;99252.22;4973996;28;20129;-61
2022/04/16 03:52:51;;;;;;;2.50;2.30;;;;;;;9.07;nan;99247.13;4973601;28;20035;-59
2022/04/16 04:00:52;;;;;;;2.47;2.28;;;;;;;8.86;nan;99228.44;4973986;28;20045;-59
2022/04/16 04:03:18;;;;;;;2.30;2.03;;;;;;;8.96;nan;99243.72;4970900;28;20480;-59
2022/04/16 04:05:45;;;;;;;2.50;2.30;;;;;;;8.93;nan;99250.56;4970595;28;20057;-59
2022/04/16 04:08:11;;;;;;;2.83;2.40;;;;;;;8.94;nan;99245.47;4981496;28;20311;-59
2022/04/16 04:10:38;;;;;;;3.20;2.50;;;;;;;8.94;nan;99254.81;4973509;28;20105;-59
2022/04/16 04:13:04;;;;;;;2.37;2.10;;;;;;;9.01;nan;99252.25;4971159;28;20093;-59
2022/04/16 04:15:29;;;;;;;2.23;2.13;;;;;;;8.99;nan;99253.13;4970107;28;20553;-59
2022/04/16 04:17:59;;;;;;;3.57;3.07;;;;;;;8.99;nan;99251.41;4973222;28;20037;-60
2022/04/16 04:20:25;;;;;;;2.27;2.07;;;;;;;8.94;nan;99242.03;4973011;28;20091;-59
2022/04/16 04:22:51;;;;;;;2.77;2.57;;;;;;;8.87;nan;99245.47;4970478;28;20602;-60
2022/04/16 04:25:16;;;;;;;2.50;2.30;;;;;;;8.95;nan;99265.06;4972248;28;20050;-60
2022/04/16 04:27:41;;;;;;;2.73;2.53;;;;;;;8.88;nan;99247.16;4973741;28;20034;-59
2022/04/16 04:30:08;;;;;;;2.70;2.50;;;;;;;8.96;nan;99259.06;4970125;28;20037;-60
2022/04/16 04:32:33;;;;;;;2.77;2.57;;;;;;;8.95;nan;99280.41;4971033;28;20400;-61
2022/04/16 04:34:58;;;;;;;2.93;2.70;;;;;;;8.82;nan;99265.94;4972203;28;20026;-59
2022/04/16 04:37:24;;;;;;;2.43;2.23;;;;;;;8.92;nan;99282.94;4973807;28;20493;-59
2022/04/16 04:39:50;;;;;;;2.33;2.13;;;;;;;8.95;nan;99285.53;4972184;28;20027;-59
2022/04/16 04:42:31;;;;;;;2.70;2.20;;;;;;;8.94;nan;99294.03;4969485;28;20034;-59
2022/04/16 04:44:57;;;;;;;2.60;2.40;;;;;;;8.91;nan;99280.41;4972599;28;20332;-60
2022/04/16 04:47:23;;;;;;;2.60;2.40;;;;;;;8.80;nan;99272.75;4973394;28;20126;-60
2022/04/16 04:49:49;;;;;;;2.57;2.37;;;;;;;8.91;nan;99288.91;4970461;28;20101;-60
2022/04/16 04:52:29;;;;;;;5.57;2.70;;;;;;;8.75;nan;99248.88;4970205;28;20532;-59
2022/04/16 04:54:56;;;;;;;2.40;2.20;;;;;;;8.84;nan;99292.34;4972579;28;20070;-60
2022/04/16 04:57:21;;;;;;;3.47;3.07;;;;;;;8.80;nan;99290.66;4972604;28;20074;-60
2022/04/16 04:59:47;;;;;;;2.90;2.67;;;;;;;8.84;nan;99299.16;4968632;28;20394;-60
2022/04/16 05:02:12;;;;;;;3.10;2.90;;;;;;;8.68;nan;99293.22;4970308;28;20023;-60
2022/04/16 05:04:37;;;;;;;3.30;3.00;;;;;;;8.76;nan;99298.31;4972987;28;20041;-60
2022/04/16 05:07:05;;;;;;;3.40;3.00;;;;;;;8.77;nan;99297.47;4973908;28;20034;-59
2022/04/16 05:09:31;;;;;;;3.40;3.10;;;;;;;8.75;nan;99299.16;4969645;28;20842;-60
2022/04/16 05:11:56;;;;;;;3.27;2.97;;;;;;;8.76;nan;99296.63;4970846;28;20034;-59
2022/04/16 05:14:22;;;;;;;3.13;2.83;;;;;;;8.66;nan;99300.03;4972547;28;20034;-60
2022/04/16 05:16:48;;;;;;;3.83;3.50;;;;;;;8.54;nan;99289.81;4972329;28;20046;-59
2022/04/16 05:19:17;;;;;;;4.97;3.20;;;;;;;8.52;nan;99294.94;4969165;28;20833;-59
2022/04/16 05:21:43;;;;;;;4.10;3.70;;;;;;;8.54;nan;99308.56;4970526;28;20030;-59
2022/04/16 05:24:09;;;;;;;4.27;3.87;;;;;;;8.44;nan;99308.56;4971588;28;20054;-59
2022/04/16 05:26:35;;;;;;;4.37;3.30;;;;;;;8.36;nan;99323.88;4973000;28;20559;-59
2022/04/16 05:29:01;;;;;;;4.40;3.77;;;;;;;8.36;nan;99328.97;4968087;28;20057;-60
2022/04/16 05:31:29;;;;;;;3.70;3.40;;;;;;;8.20;nan;99319.56;4971336;28;20561;-60
2022/04/16 05:36:39;;;;;;;4.43;4.03;;;;;;;8.20;nan;99332.34;4970679;28;20045;-60
2022/04/16 05:39:05;;;;;;;5.33;4.20;;;;;;;8.12;nan;99331.47;4969819;28;20030;-60
2022/04/16 05:41:33;;;;;;;5.10;4.40;;;;;;;8.23;nan;99355.34;4971322;28;20038;-59
2022/04/16 05:43:59;;;;;;;4.53;4.00;;;;;;;8.11;nan;99356.16;4972731;28;20041;-60
2022/04/16 05:46:24;;;;;;;4.67;4.07;;;;;;;8.05;nan;99365.50;4968962;28;20034;-63
2022/04/16 05:48:50;;;;;;;5.00;4.47;;;;;;;7.86;nan;99368.84;4967576;28;20662;-59
2022/04/16 05:51:15;;;;;;;6.43;4.43;;;;;;;7.82;nan;99353.53;4972425;28;20041;-61
2022/04/16 05:53:41;;;;;;;5.90;4.53;;;;;;;7.74;nan;99356.88;4973939;28;20042;-58
2022/04/16 05:56:08;;;;;;;6.50;5.17;;;;;;;7.77;nan;99354.34;4969129;28;20568;-61
2022/04/16 05:58:33;;;;;;;5.23;4.70;;;;;;;7.96;nan;99370.59;4969328;28;20065;-60
2022/04/16 06:01:00;;;;;;;6.07;5.00;;;;;;;7.98;nan;99343.34;4971120;28;20030;-58
2022/04/16 06:03:26;;;;;;;5.23;4.33;;;;;;;8.04;nan;99351.03;4971634;28;20039;-61
2022/04/16 06:05:52;;;;;;;5.63;5.03;;;;;;;8.20;nan;99347.66;4968096;28;20077;-60
2022/04/16 06:08:18;;;;;;;6.37;4.80;;;;;;;8.32;nan;99360.47;4969196;28;20448;-60
2022/04/16 06:10:44;;;;;;;5.97;4.50;;;;;;;8.44;nan;99362.22;4972196;28;20457;-60
2022/04/16 06:13:11;;;;;;;6.57;5.10;;;;;;;8.45;nan;99363.91;4971160;28;20124;-60
2022/04/16 06:15:39;;;;;;;7.87;5.43;;;;;;;8.44;nan;99357.13;4968236;28;20413;-60
2022/04/16 06:18:04;;;;;;;5.47;4.83;;;;;;;8.42;nan;99381.78;4970322;28;20034;-60
2022/04/16 06:20:30;;;;;;;5.83;4.90;;;;;;;8.27;nan;99363.00;4970473;28;20037;-60
2022/04/16 06:22:55;;;;;;;6.23;4.80;;;;;;;8.30;nan;99369.88;4970915;28;20540;-60
2022/04/16 06:25:21;;;;;;;3.50;3.20;;;;;;;8.25;nan;99369.81;4967633;28;20057;-60
2022/04/16 06:27:46;;;;;;;3.03;2.77;;;;;;;8.27;nan;99364.72;4970415;28;20036;-59
2022/04/16 06:30:11;;;;;;;3.40;3.07;;;;;;;8.32;nan;99364.75;4971725;28;20041;-59
2022/04/16 06:32:38;;;;;;;2.90;2.70;;;;;;;8.38;nan;99360.50;4970475;28;20117;-61
2022/04/16 06:35:05;;;;;;;2.40;2.20;;;;;;;8.37;nan;99370.72;4967749;28;20062;-59
2022/04/16 06:37:34;;;;;;;3.30;3.00;;;;;;;8.43;nan;99369.03;4970589;28;20023;-59
2022/04/16 06:40:00;;;;;;;2.53;2.33;;;;;;;8.43;nan;99386.06;4972948;28;20451;-59
2022/04/16 06:42:26;;;;;;;2.50;2.30;;;;;;;8.57;nan;99386.94;4973959;28;20026;-60
2022/04/16 06:44:52;;;;;;;2.50;2.30;;;;;;;8.58;nan;99388.63;4973612;28;20034;-60
2022/04/16 06:47:17;;;;;;;2.60;2.40;;;;;;;8.57;nan;99382.66;4975700;28;20125;-60
2022/04/16 06:49:43;;;;;;;3.57;3.27;;;;;;;8.67;nan;99389.50;4973340;28;20038;-61
2022/04/16 06:52:09;;;;;;;4.07;2.63;;;;;;;8.50;nan;99382.66;4970486;28;20100;-60
2022/04/16 06:54:36;;;;;;;3.30;3.10;;;;;;;8.56;nan;99400.56;4973075;28;20582;-60
2022/04/16 06:57:01;;;;;;;3.70;3.40;;;;;;;8.43;nan;99406.50;4973018;28;20074;-60
2022/04/16 06:59:26;;;;;;;3.30;3.00;;;;;;;8.45;nan;99397.13;4973152;28;20429;-60
2022/04/16 07:01:52;;;;;;;3.00;2.80;;;;;;;8.44;nan;99396.28;4972232;28;20035;-60
2022/04/16 07:04:17;;;;;;;4.03;3.30;;;;;;;8.63;nan;99412.50;4972189;28;20031;-60
2022/04/16 07:06:43;;;;;;;4.17;3.77;;;;;;;8.50;nan;99405.66;4975788;28;20049;-60
2022/04/16 07:09:10;;;;;;;4.13;3.80;;;;;;;8.65;nan;99421.03;4975059;28;20049;-60
2022/04/16 07:11:36;;;;;;;3.43;3.13;;;;;;;8.55;nan;99422.72;4970722;28;20069;-65
2022/04/16 07:14:01;;;;;;;4.90;4.00;;;;;;;8.58;nan;99430.38;4972193;28;20030;-59
2022/04/16 07:16:27;;;;;;;3.83;3.43;;;;;;;8.65;nan;99429.56;4976051;28;20026;-60
2022/04/16 07:18:52;;;;;;;3.80;3.33;;;;;;;8.55;nan;99429.53;4975451;28;20173;-61
2022/04/16 07:21:17;;;;;;;3.60;3.30;;;;;;;8.49;nan;99444.81;4971124;28;20038;-63
2022/04/16 07:23:43;;;;;;;13.43;9.70;;;;;;;8.33;nan;99440.53;4972594;28;20043;-60
2022/04/16 07:26:08;;;;;;;23.13;16.93;;;;;;;8.42;nan;99445.66;4975409;28;20039;-60
2022/04/16 07:28:34;;;;;;;4.17;3.87;;;;;;;8.31;nan;99452.47;4975476;28;20581;-60
2022/04/16 07:30:59;;;;;;;4.53;4.13;;;;;;;8.33;nan;99436.28;4972242;28;20030;-61
2022/04/16 07:33:31;;;;;;;4.70;4.07;;;;;;;8.44;nan;99460.19;4974481;28;20034;-60
2022/04/16 07:35:57;;;;;;;3.87;3.33;;;;;;;8.46;nan;99460.16;4974343;28;20031;-58
2022/04/16 07:38:23;;;;;;;4.53;4.13;;;;;;;8.49;nan;99457.59;4971954;28;20062;-59
2022/04/16 07:40:48;;;;;;;4.73;4.20;;;;;;;8.45;nan;99461.00;4972422;28;20762;-59
2022/04/16 07:43:18;;;;;;;4.30;4.00;;;;;;;8.49;nan;99457.59;4973807;28;20456;-59
2022/04/16 07:45:43;;;;;;;4.20;3.47;;;;;;;8.46;nan;99444.81;4973994;28;20466;-59
2022/04/16 07:48:09;;;;;;;3.70;3.23;;;;;;;8.44;nan;99456.75;4972864;28;20058;-59
2022/04/16 07:50:34;;;;;;;3.70;3.30;;;;;;;8.49;nan;99476.34;4967271;28;20042;-59
2022/04/16 07:53:00;;;;;;;4.47;3.27;;;;;;;8.55;nan;99461.03;4974786;28;20046;-60
2022/04/16 07:55:32;;;;;;;4.30;3.90;;;;;;;8.58;nan;99465.28;4974432;28;20400;-58
2022/04/16 07:57:59;;;;;;;6.43;5.30;;;;;;;8.53;nan;99460.16;4972098;28;20104;-59
2022/04/16 08:00:24;;;;;;;6.00;4.80;;;;;;;8.46;nan;99457.59;4970498;28;20040;-60
2022/04/16 08:02:50;;;;;;;4.93;4.43;;;;;;;8.47;nan;99472.09;4974797;28;20407;-60
2022/04/16 08:05:15;;;;;;;3.93;3.60;;;;;;;8.37;nan;99465.25;4973400;28;20042;-59
2022/04/16 08:07:41;;;;;;;4.63;3.60;;;;;;;8.32;nan;99472.06;4970563;28;20038;-60
2022/04/16 08:10:07;;;;;;;4.40;4.00;;;;;;;8.18;nan;99482.19;4970641;28;20184;-59
2022/04/16 08:12:33;;;;;;;3.57;3.27;;;;;;;8.17;nan;99477.91;4973579;28;20445;-59
2022/04/16 08:14:58;;;;;;;4.03;3.10;;;;;;;8.13;nan;99476.19;4973718;28;20045;-59
2022/04/16 08:17:23;;;;;;;3.90;3.47;;;;;;;8.16;nan;99496.63;4971145;28;20469;-60
2022/04/16 08:19:49;;;;;;;3.23;2.90;;;;;;;8.12;nan;99495.78;4971307;28;20035;-59
2022/04/16 08:22:23;;;;;;;6.27;4.13;;;;;;;8.14;nan;99486.44;4974689;28;20042;-59
2022/04/16 08:27:34;;;;;;;;;;;;;;;8.10;nan;99517.91;4971227;28;20097;-60
2022/04/16 08:30:00;;;;;;;3.63;2.80;;;;;;;7.98;nan;99505.06;4972475;28;20347;-60
2022/04/16 08:32:26;;;;;;;3.07;2.77;;;;;;;7.95;nan;99517.81;4974220;28;20061;-61
2022/04/16 08:34:51;;;;;;;3.40;3.10;;;;;;;7.84;nan;99493.94;4972119;28;20042;-60
2022/04/16 08:37:17;;;;;;;2.97;2.77;;;;;;;7.96;nan;99516.13;4970403;28;20056;-60
2022/04/16 08:39:42;;;;;;;4.80;2.90;;;;;;;7.90;nan;99503.31;4972204;28;20062;-60
2022/04/16 08:42:08;;;;;;;3.20;2.90;;;;;;;7.92;nan;99515.25;4974327;28;20169;-60
2022/04/16 08:44:37;;;;;;;3.70;3.23;;;;;;;7.93;nan;99500.78;4971476;28;20038;-61
2022/04/16 08:47:05;;;;;;;3.27;2.97;;;;;;;7.95;nan;99515.25;4969517;28;20048;-61
2022/04/16 08:49:31;;;;;;;3.17;2.90;;;;;;;7.97;nan;99502.50;4972938;28;20047;-62
2022/04/16 08:51:57;;;;;;;3.20;3.00;;;;;;;8.03;nan;99512.75;4973539;28;20040;-63
2022/04/16 08:54:22;;;;;;;2.80;2.40;;;;;;;8.03;nan;99522.94;4968730;28;20057;-63
2022/04/16 08:56:48;;;;;;;3.77;3.37;;;;;;;8.02;nan;99514.44;4968986;28;20038;-63
2022/04/16 08:59:14;;;;;;;2.60;2.40;;;;;;;8.04;nan;99519.56;4971534;28;20035;-63
2022/04/16 09:01:40;;;;;;;2.60;2.40;;;;;;;8.03;nan;99521.25;4972014;28;20129;-63
2022/04/16 09:04:05;;;;;;;3.17;2.97;;;;;;;8.11;nan;99517.03;4968260;28;20557;-63
2022/04/16 09:06:31;;;;;;;5.07;3.10;;;;;;;8.23;nan;99516.28;4968895;28;20019;-61
2022/04/16 09:08:56;;;;;;;2.50;2.30;;;;;;;8.23;nan;99524.75;4971355;28;20121;-62
2022/04/16 09:11:24;;;;;;;3.17;2.80;;;;;;;8.16;nan;99502.59;4970314;28;20496;-61
2022/04/16 09:13:49;;;;;;;2.30;2.10;;;;;;;8.33;nan;99523.13;4970015;28;20396;-62
2022/04/16 09:16:16;;;;;;;2.47;2.27;;;;;;;8.33;nan;99509.50;4971034;28;20031;-62
2022/04/16 09:18:47;;;;;;;2.37;2.17;;;;;;;8.50;nan;99531.72;4972253;28;20491;-62
2022/04/16 09:21:13;;;;;;;2.63;2.43;;;;;;;8.48;nan;99513.00;4971689;28;20035;-62
2022/04/16 09:23:47;;;;;;;2.30;2.10;;;;;;;8.56;nan;99505.34;4968949;28;20031;-62
2022/04/16 09:26:13;;;;;;;3.07;2.50;;;;;;;8.70;nan;99509.63;4970989;28;20060;-62
2022/04/16 09:28:44;;;;;;;2.83;2.33;;;;;;;8.79;nan;99520.72;4973175;28;20038;-61
2022/04/16 09:31:10;;;;;;;2.37;2.27;;;;;;;8.93;nan;99519.91;4970957;28;20034;-61
2022/04/16 09:33:37;;;;;;;6.67;2.27;;;;;;;9.07;nan;99536.16;4968770;28;20026;-62
2022/04/16 09:36:03;;;;;;;3.03;2.73;;;;;;;8.94;nan;99536.97;4971455;28;20038;-65
2022/04/16 09:38:34;;;;;;;2.80;2.60;;;;;;;8.70;nan;99536.91;4972559;28;20039;-63
2022/04/16 09:41:08;;;;;;;2.27;2.07;;;;;;;8.53;nan;99526.63;4970145;28;20128;-66
2022/04/16 09:43:37;;;;;;;2.80;2.60;;;;;;;8.50;nan;99541.09;4969326;28;20023;-62
2022/04/16 09:46:11;;;;;;;2.63;2.40;;;;;;;8.49;nan;99557.25;4972755;28;20045;-62
2022/04/16 09:48:37;;;;;;;2.17;1.87;;;;;;;8.20;nan;99547.75;4973310;28;20034;-62
2022/04/16 09:51:04;;;;;;;2.10;1.90;;;;;;;8.19;nan;99551.13;4968573;28;20448;-62
2022/04/16 09:53:31;;;;;;;3.40;3.10;;;;;;;8.21;nan;99557.13;4967498;28;20497;-62
2022/04/16 09:55:58;;;;;;;2.40;2.20;;;;;;;7.94;nan;99562.06;4970848;28;20133;-62
2022/04/16 09:58:34;;;;;;;2.10;1.90;;;;;;;8.09;nan;99563.84;4971176;28;20117;-61
2022/04/16 10:01:01;;;;;;;2.73;2.53;;;;;;;7.96;nan;99545.06;4967529;28;20488;-61
2022/04/16 10:03:29;;;;;;;2.30;1.87;;;;;;;8.01;nan;99561.28;4968911;28;20069;-61
2022/04/16 10:05:57;;;;;;;2.60;1.80;;;;;;;8.05;nan;99554.47;4969250;28;20535;-61
2022/04/16 10:08:25;;;;;;;2.27;2.07;;;;;;;8.15;nan;99577.50;4971591;28;20369;-61
2022/04/16 10:10:55;;;;;;;3.00;2.03;;;;;;;8.05;nan;99578.31;4968165;28;20348;-62
2022/04/16 10:13:22;;;;;;;6.97;2.37;;;;;;;7.80;nan;99579.84;4970397;28;20035;-61
2022/04/16 10:16:06;;;;;;;2.20;2.00;;;;;;;7.81;nan;99593.44;4970894;28;20053;-61
2022/04/16 10:18:38;;;;;;;2.33;2.03;;;;;;;7.77;nan;99595.13;4967748;28;20081;-61
2022/04/16 10:21:14;;;;;;;3.63;2.00;;;;;;;7.54;nan;99581.34;4969280;28;20134;-60
2022/04/16 10:23:40;;;;;;;2.63;2.33;;;;;;;7.61;nan;99600.09;4969013;28;20089;-61
2022/04/16 10:26:14;;;;;;;2.43;2.03;;;;;;;7.62;nan;99592.47;4967276;28;20153;-60
2022/04/16 10:28:53;;;;;;;2.70;2.00;;;;;;;7.71;nan;99578.91;4966705;28;20469;-61
2022/04/16 10:31:25;;;;;;;2.30;2.10;;;;;;;8.11;nan;99597.91;4969894;28;20162;-64
2022/04/16 10:33:57;;;;;;;1.90;1.70;;;;;;;8.33;nan;99601.47;4970445;28;20165;-58
2022/04/16 10:36:28;;;;;;;2.53;1.77;;;;;;;8.23;nan;99591.16;4969222;28;20066;-59
2022/04/16 10:38:54;;;;;;;1.80;1.70;;;;;;;8.30;nan;99601.47;4967188;28;20031;-59
2022/04/16 10:41:20;;;;;;;2.43;2.23;;;;;;;8.35;nan;99610.88;4969052;28;20536;-59
2022/04/16 10:43:57;;;;;;;2.30;2.07;;;;;;;8.30;nan;99592.13;4970589;28;20041;-59
2022/04/16 10:46:23;;;;;;;2.67;2.47;;;;;;;8.46;nan;99595.59;4969288;28;20378;-60
2022/04/16 10:48:49;;;;;;;2.70;2.50;;;;;;;8.35;nan;99592.13;4966979;28;20400;-59
2022/04/16 10:51:20;;;;;;;1.90;1.80;;;;;;;8.51;nan;99593.91;4972712;28;20054;-59
2022/04/16 10:53:45;;;;;;;2.00;1.90;;;;;;;8.60;nan;99576.06;4970233;28;20026;-60
2022/04/16 10:56:20;;;;;;;2.50;2.23;;;;;;;8.74;nan;99594.88;4967258;28;20035;-59
2022/04/16 10:58:48;;;;;;;1.40;1.30;;;;;;;8.67;nan;99603.34;4966969;28;20030;-60
2022/04/16 11:01:23;;;;;;;2.10;1.93;;;;;;;8.50;nan;99574.31;4971323;28;20256;-60
2022/04/16 11:03:50;;;;;;;2.90;2.00;;;;;;;8.66;nan;99599.09;4968470;28;20035;-64
2022/04/16 11:06:17;;;;;;;2.03;1.93;;;;;;;8.81;nan;99596.59;4967052;28;20035;-60
2022/04/16 11:08:45;;;;;;;2.40;2.20;;;;;;;8.60;nan;99592.28;4968103;28;20022;-59
2022/04/16 11:11:13;;;;;;;1.60;1.50;;;;;;;8.61;nan;99599.06;4969727;28;20039;-60
2022/04/16 11:13:39;;;;;;;2.10;1.90;;;;;;;8.82;nan;99594.91;4969876;28;20066;-60
2022/04/16 11:16:06;;;;;;;1.90;1.60;;;;;;;8.77;nan;99599.13;4966035;28;20038;-60
2022/04/16 11:18:45;;;;;;;2.43;2.20;;;;;;;8.71;nan;99602.53;4969111;28;20512;-58
2022/04/16 11:21:18;;;;;;;2.67;2.07;;;;;;;8.46;nan;99593.91;4971387;28;20544;-58
2022/04/16 11:23:47;;;;;;;4.80;2.00;;;;;;;8.48;nan;99576.03;4968352;28;20073;-58
2022/04/16 11:34:32;;;;;;;2.37;2.03;;;;;;;8.56;nan;99605.03;4971855;28;19947;-59
2022/04/16 11:36:59;;;;;;;2.10;1.93;;;;;;;8.51;nan;99596.47;4972883;28;20512;-61
2022/04/16 11:39:27;;;;;;;3.30;2.43;;;;;;;8.42;nan;99599.84;4974058;28;20031;-61
2022/04/16 11:41:54;;;;;;;2.17;1.97;;;;;;;8.41;nan;99587.03;4973129;28;20043;-60
2022/04/16 11:44:44;;;;;;;3.13;2.50;;;;;;;8.62;nan;99605.03;4971317;28;20108;-60
2022/04/16 11:47:12;;;;;;;4.13;2.40;;;;;;;8.71;nan;99595.72;4972211;28;20047;-59
2022/04/16 11:49:40;;;;;;;2.03;1.83;;;;;;;8.42;nan;99584.50;4974545;28;20489;-59
2022/04/16 11:52:06;;;;;;;2.30;2.10;;;;;;;8.43;nan;99600.69;4971820;28;20093;-59
2022/04/16 11:54:32;;;;;;;2.43;2.10;;;;;;;8.65;nan;99603.38;4969370;28;20101;-61
2022/04/16 11:56:58;;;;;;;3.10;2.47;;;;;;;8.57;nan;99609.28;4973509;28;20788;-60
2022/04/16 11:59:25;;;;;;;2.83;2.17;;;;;;;8.73;nan;99613.63;4975424;28;20519;-60
2022/04/16 12:02:08;;;;;;;3.40;2.60;;;;;;;9.12;nan;99606.06;4971821;28;20034;-62
2022/04/16 12:04:38;;;;;;;2.23;2.03;;;;;;;8.95;nan;99612.84;4970302;28;20401;-62
2022/04/16 12:07:11;;;;;;;2.07;1.97;;;;;;;8.82;nan;99608.53;4973685;28;20038;-58
2022/04/16 12:09:36;;;;;;;2.33;2.10;;;;;;;8.78;nan;99604.28;4973203;28;20934;-60
2022/04/16 12:12:05;;;;;;;2.90;2.57;;;;;;;8.78;nan;99601.72;4970158;28;20050;-60
2022/04/16 12:14:31;;;;;;;2.20;2.00;;;;;;;8.94;nan;99593.25;4969815;28;20110;-60
2022/04/16 12:16:58;;;;;;;3.10;2.30;;;;;;;8.89;nan;99605.16;4972369;28;20312;-59
2022/04/16 12:19:27;;;;;;;2.33;2.13;;;;;;;8.83;nan;99600.00;4972699;28;20031;-60
2022/04/16 12:21:52;;;;;;;3.67;2.40;;;;;;;8.74;nan;99610.22;4969458;28;20231;-60